sensor_id;sensor_type;location;lat;lon;timestamp;P1;durP1;ratioP1;P2;durP2;ratioP2
2061;SDS011;11070;51.336;12.340;2023-03-01T00:01:58;36.60;;;20.67;;
2061;SDS011;11070;51.336;12.340;2023-03-01T00:04:24;31.47;;;19.73;;
2061;SDS011;11070;51.336;12.340;2023-03-01T00:06:49;32.17;;;20.90;;
2061;SDS011;11070;51.336;12.340;2023-03-01T00:09:16;34.08;;;21.88;;
2061;SDS011;11070;51.336;12.340;2023-03-01T00:11:42;29.90;;;19.90;;
2061;SDS011;11070;51.336;12.340;2023-03-01T00:14:08;34.03;;;20.13;;
2061;SDS011;11070;51.336;12.340;2023-03-01T00:16:36;32.63;;;19.77;;
2061;SDS011;11070;51.336;12.340;2023-03-01T00:19:15;33.42;;;20.00;;
2061;SDS011;11070;51.336;12.340;2023-03-01T00:21:43;28.35;;;18.80;;
2061;SDS011;11070;51.336;12.340;2023-03-01T00:24:09;31.85;;;20.92;;
2061;SDS011;11070;51.336;12.340;2023-03-01T00:26:35;28.83;;;18.63;;
2061;SDS011;11070;51.336;12.340;2023-03-01T00:29:01;32.63;;;18.97;;
2061;SDS011;11070;51.336;12.340;2023-03-01T00:31:28;31.08;;;20.02;;
2061;SDS011;11070;51.336;12.340;2023-03-01T00:33:56;29.13;;;18.67;;
2061;SDS011;11070;51.336;12.340;2023-03-01T00:36:24;32.53;;;19.33;;
2061;SDS011;11070;51.336;12.340;2023-03-01T00:38:53;28.88;;;19.33;;
2061;SDS011;11070;51.336;12.340;2023-03-01T00:41:19;31.48;;;19.52;;
2061;SDS011;11070;51.336;12.340;2023-03-01T00:43:47;30.63;;;18.67;;
2061;SDS011;11070;51.336;12.340;2023-03-01T00:46:15;30.58;;;18.17;;
2061;SDS011;11070;51.336;12.340;2023-03-01T00:48:42;30.90;;;18.60;;
2061;SDS011;11070;51.336;12.340;2023-03-01T00:53:43;34.10;;;19.00;;
2061;SDS011;11070;51.336;12.340;2023-03-01T00:56:10;27.70;;;19.63;;
2061;SDS011;11070;51.336;12.340;2023-03-01T00:58:37;26.25;;;17.50;;
2061;SDS011;11070;51.336;12.340;2023-03-01T01:01:09;30.15;;;19.45;;
2061;SDS011;11070;51.336;12.340;2023-03-01T01:03:43;26.60;;;17.00;;
2061;SDS011;11070;51.336;12.340;2023-03-01T01:06:17;27.92;;;17.20;;
2061;SDS011;11070;51.336;12.340;2023-03-01T01:08:48;29.85;;;17.48;;
2061;SDS011;11070;51.336;12.340;2023-03-01T01:11:14;30.38;;;18.25;;
2061;SDS011;11070;51.336;12.340;2023-03-01T01:13:41;32.65;;;19.10;;
2061;SDS011;11070;51.336;12.340;2023-03-01T01:16:08;30.65;;;17.95;;
2061;SDS011;11070;51.336;12.340;2023-03-01T01:18:34;32.10;;;19.30;;
2061;SDS011;11070;51.336;12.340;2023-03-01T01:21:04;34.70;;;19.70;;
2061;SDS011;11070;51.336;12.340;2023-03-01T01:23:31;31.80;;;18.73;;
2061;SDS011;11070;51.336;12.340;2023-03-01T01:25:57;36.45;;;19.02;;
2061;SDS011;11070;51.336;12.340;2023-03-01T01:28:39;31.40;;;17.52;;
2061;SDS011;11070;51.336;12.340;2023-03-01T01:31:05;29.90;;;17.63;;
2061;SDS011;11070;51.336;12.340;2023-03-01T01:33:31;28.25;;;17.00;;
2061;SDS011;11070;51.336;12.340;2023-03-01T01:35:56;31.57;;;17.60;;
2061;SDS011;11070;51.336;12.340;2023-03-01T01:38:23;27.45;;;16.98;;
2061;SDS011;11070;51.336;12.340;2023-03-01T01:40:51;29.45;;;18.20;;
2061;SDS011;11070;51.336;12.340;2023-03-01T01:43:27;27.43;;;16.90;;
2061;SDS011;11070;51.336;12.340;2023-03-01T01:45:56;28.00;;;17.27;;
2061;SDS011;11070;51.336;12.340;2023-03-01T01:48:26;33.15;;;17.40;;
2061;SDS011;11070;51.336;12.340;2023-03-01T01:51:05;27.85;;;16.75;;
2061;SDS011;11070;51.336;12.340;2023-03-01T01:53:34;26.30;;;15.95;;
2061;SDS011;11070;51.336;12.340;2023-03-01T01:56:01;27.73;;;16.88;;
2061;SDS011;11070;51.336;12.340;2023-03-01T01:58:29;28.08;;;17.10;;
2061;SDS011;11070;51.336;12.340;2023-03-01T02:00:55;24.30;;;16.38;;
2061;SDS011;11070;51.336;12.340;2023-03-01T02:03:28;30.27;;;16.87;;
2061;SDS011;11070;51.336;12.340;2023-03-01T02:08:28;30.15;;;16.05;;
2061;SDS011;11070;51.336;12.340;2023-03-01T02:10:57;22.80;;;16.75;;
2061;SDS011;11070;51.336;12.340;2023-03-01T02:13:24;29.00;;;17.20;;
2061;SDS011;11070;51.336;12.340;2023-03-01T02:15:50;25.98;;;16.52;;
2061;SDS011;11070;51.336;12.340;2023-03-01T02:18:17;23.20;;;15.70;;
2061;SDS011;11070;51.336;12.340;2023-03-01T02:20:51;29.55;;;17.70;;
2061;SDS011;11070;51.336;12.340;2023-03-01T02:23:30;23.70;;;15.88;;
2061;SDS011;11070;51.336;12.340;2023-03-01T02:28:46;24.63;;;16.55;;
2061;SDS011;11070;51.336;12.340;2023-03-01T02:31:17;24.38;;;15.85;;
2061;SDS011;11070;51.336;12.340;2023-03-01T02:34:04;27.88;;;17.33;;
2061;SDS011;11070;51.336;12.340;2023-03-01T02:36:35;23.00;;;15.38;;
2061;SDS011;11070;51.336;12.340;2023-03-01T02:39:06;23.90;;;16.10;;
2061;SDS011;11070;51.336;12.340;2023-03-01T02:41:39;24.67;;;15.52;;
2061;SDS011;11070;51.336;12.340;2023-03-01T02:44:07;24.60;;;16.00;;
2061;SDS011;11070;51.336;12.340;2023-03-01T02:46:33;26.20;;;16.17;;
2061;SDS011;11070;51.336;12.340;2023-03-01T02:49:23;22.75;;;15.05;;
2061;SDS011;11070;51.336;12.340;2023-03-01T02:57:15;26.42;;;16.50;;
2061;SDS011;11070;51.336;12.340;2023-03-01T02:59:41;22.17;;;15.02;;
2061;SDS011;11070;51.336;12.340;2023-03-01T03:02:18;25.77;;;15.45;;
2061;SDS011;11070;51.336;12.340;2023-03-01T03:05:01;24.13;;;15.68;;
2061;SDS011;11070;51.336;12.340;2023-03-01T03:07:41;25.55;;;15.05;;
2061;SDS011;11070;51.336;12.340;2023-03-01T03:10:10;26.20;;;16.70;;
2061;SDS011;11070;51.336;12.340;2023-03-01T03:12:44;26.58;;;17.15;;
2061;SDS011;11070;51.336;12.340;2023-03-01T03:15:17;27.02;;;16.00;;
2061;SDS011;11070;51.336;12.340;2023-03-01T03:17:45;26.27;;;17.20;;
2061;SDS011;11070;51.336;12.340;2023-03-01T03:20:12;24.95;;;15.73;;
2061;SDS011;11070;51.336;12.340;2023-03-01T03:22:43;24.85;;;16.85;;
2061;SDS011;11070;51.336;12.340;2023-03-01T03:25:10;28.80;;;16.80;;
2061;SDS011;11070;51.336;12.340;2023-03-01T03:27:39;24.90;;;15.90;;
2061;SDS011;11070;51.336;12.340;2023-03-01T03:30:07;28.60;;;17.65;;
2061;SDS011;11070;51.336;12.340;2023-03-01T03:32:37;34.30;;;16.88;;
2061;SDS011;11070;51.336;12.340;2023-03-01T03:35:07;25.42;;;15.80;;
2061;SDS011;11070;51.336;12.340;2023-03-01T03:37:37;26.52;;;17.77;;
2061;SDS011;11070;51.336;12.340;2023-03-01T03:40:23;26.88;;;16.58;;
2061;SDS011;11070;51.336;12.340;2023-03-01T03:42:49;24.02;;;15.80;;
2061;SDS011;11070;51.336;12.340;2023-03-01T03:45:15;26.77;;;16.60;;
2061;SDS011;11070;51.336;12.340;2023-03-01T03:47:42;25.90;;;16.42;;
2061;SDS011;11070;51.336;12.340;2023-03-01T03:50:09;28.50;;;17.88;;
2061;SDS011;11070;51.336;12.340;2023-03-01T03:52:39;27.35;;;17.23;;
2061;SDS011;11070;51.336;12.340;2023-03-01T03:55:05;26.57;;;16.30;;
2061;SDS011;11070;51.336;12.340;2023-03-01T03:57:38;27.00;;;16.55;;
2061;SDS011;11070;51.336;12.340;2023-03-01T04:00:07;25.05;;;16.17;;
2061;SDS011;11070;51.336;12.340;2023-03-01T04:02:39;26.73;;;17.13;;
2061;SDS011;11070;51.336;12.340;2023-03-01T04:05:08;27.55;;;16.73;;
2061;SDS011;11070;51.336;12.340;2023-03-01T04:07:36;24.08;;;16.25;;
2061;SDS011;11070;51.336;12.340;2023-03-01T04:10:03;30.17;;;16.73;;
2061;SDS011;11070;51.336;12.340;2023-03-01T04:12:31;28.25;;;16.52;;
2061;SDS011;11070;51.336;12.340;2023-03-01T04:14:58;23.98;;;15.23;;
2061;SDS011;11070;51.336;12.340;2023-03-01T04:17:37;29.45;;;16.73;;
2061;SDS011;11070;51.336;12.340;2023-03-01T04:20:06;25.00;;;15.95;;
2061;SDS011;11070;51.336;12.340;2023-03-01T04:22:36;31.10;;;15.95;;
2061;SDS011;11070;51.336;12.340;2023-03-01T04:25:02;27.05;;;16.98;;
2061;SDS011;11070;51.336;12.340;2023-03-01T04:27:31;24.70;;;16.25;;
2061;SDS011;11070;51.336;12.340;2023-03-01T04:29:58;28.30;;;17.70;;
2061;SDS011;11070;51.336;12.340;2023-03-01T04:32:23;25.77;;;15.93;;
2061;SDS011;11070;51.336;12.340;2023-03-01T04:34:49;26.40;;;16.80;;
2061;SDS011;11070;51.336;12.340;2023-03-01T04:37:15;26.80;;;16.60;;
2061;SDS011;11070;51.336;12.340;2023-03-01T04:39:41;33.63;;;16.80;;
2061;SDS011;11070;51.336;12.340;2023-03-01T04:42:19;28.52;;;16.98;;
2061;SDS011;11070;51.336;12.340;2023-03-01T04:44:45;27.98;;;16.80;;
2061;SDS011;11070;51.336;12.340;2023-03-01T04:47:11;24.87;;;15.87;;
2061;SDS011;11070;51.336;12.340;2023-03-01T04:49:37;29.03;;;18.27;;
2061;SDS011;11070;51.336;12.340;2023-03-01T04:52:04;27.80;;;16.80;;
2061;SDS011;11070;51.336;12.340;2023-03-01T04:54:31;27.00;;;16.73;;
2061;SDS011;11070;51.336;12.340;2023-03-01T04:56:57;32.67;;;17.13;;
2061;SDS011;11070;51.336;12.340;2023-03-01T04:59:23;45.90;;;18.80;;
2061;SDS011;11070;51.336;12.340;2023-03-01T05:01:50;27.05;;;16.63;;
2061;SDS011;11070;51.336;12.340;2023-03-01T05:04:16;27.45;;;17.77;;
2061;SDS011;11070;51.336;12.340;2023-03-01T05:06:42;29.10;;;18.87;;
2061;SDS011;11070;51.336;12.340;2023-03-01T05:09:08;30.35;;;17.35;;
2061;SDS011;11070;51.336;12.340;2023-03-01T05:11:36;31.33;;;18.33;;
2061;SDS011;11070;51.336;12.340;2023-03-01T05:14:03;26.42;;;17.65;;
2061;SDS011;11070;51.336;12.340;2023-03-01T05:16:30;28.08;;;17.20;;
2061;SDS011;11070;51.336;12.340;2023-03-01T05:18:57;31.38;;;18.92;;
2061;SDS011;11070;51.336;12.340;2023-03-01T05:21:23;27.67;;;17.70;;
2061;SDS011;11070;51.336;12.340;2023-03-01T05:23:49;34.43;;;18.87;;
2061;SDS011;11070;51.336;12.340;2023-03-01T05:26:16;27.80;;;17.80;;
2061;SDS011;11070;51.336;12.340;2023-03-01T05:28:43;33.95;;;17.75;;
2061;SDS011;11070;51.336;12.340;2023-03-01T05:31:09;30.85;;;18.20;;
2061;SDS011;11070;51.336;12.340;2023-03-01T05:33:35;29.67;;;19.37;;
2061;SDS011;11070;51.336;12.340;2023-03-01T05:36:03;33.90;;;18.45;;
2061;SDS011;11070;51.336;12.340;2023-03-01T05:38:30;33.38;;;17.92;;
2061;SDS011;11070;51.336;12.340;2023-03-01T05:40:56;31.67;;;18.53;;
2061;SDS011;11070;51.336;12.340;2023-03-01T05:43:21;27.83;;;18.50;;
2061;SDS011;11070;51.336;12.340;2023-03-01T05:45:47;29.63;;;18.67;;
2061;SDS011;11070;51.336;12.340;2023-03-01T05:48:13;28.43;;;17.60;;
2061;SDS011;11070;51.336;12.340;2023-03-01T05:50:42;30.00;;;18.77;;
2061;SDS011;11070;51.336;12.340;2023-03-01T05:53:16;32.83;;;18.40;;
2061;SDS011;11070;51.336;12.340;2023-03-01T05:55:46;29.50;;;17.85;;
2061;SDS011;11070;51.336;12.340;2023-03-01T05:58:16;32.70;;;17.42;;
2061;SDS011;11070;51.336;12.340;2023-03-01T06:00:45;33.25;;;19.58;;
2061;SDS011;11070;51.336;12.340;2023-03-01T06:03:13;29.23;;;18.00;;
2061;SDS011;11070;51.336;12.340;2023-03-01T06:05:41;33.92;;;17.95;;
2061;SDS011;11070;51.336;12.340;2023-03-01T06:08:08;31.63;;;18.83;;
2061;SDS011;11070;51.336;12.340;2023-03-01T06:10:37;32.15;;;19.08;;
2061;SDS011;11070;51.336;12.340;2023-03-01T06:13:03;31.43;;;19.10;;
2061;SDS011;11070;51.336;12.340;2023-03-01T06:15:29;29.17;;;19.48;;
2061;SDS011;11070;51.336;12.340;2023-03-01T06:17:55;31.20;;;18.73;;
2061;SDS011;11070;51.336;12.340;2023-03-01T06:20:24;33.03;;;19.45;;
2061;SDS011;11070;51.336;12.340;2023-03-01T06:22:51;29.52;;;18.90;;
2061;SDS011;11070;51.336;12.340;2023-03-01T06:25:18;32.65;;;17.98;;
2061;SDS011;11070;51.336;12.340;2023-03-01T06:27:46;32.97;;;20.42;;
2061;SDS011;11070;51.336;12.340;2023-03-01T06:30:14;29.40;;;18.35;;
2061;SDS011;11070;51.336;12.340;2023-03-01T06:32:42;28.70;;;17.90;;
2061;SDS011;11070;51.336;12.340;2023-03-01T06:35:09;26.17;;;17.25;;
2061;SDS011;11070;51.336;12.340;2023-03-01T06:37:36;28.05;;;18.33;;
2061;SDS011;11070;51.336;12.340;2023-03-01T06:40:05;29.63;;;17.43;;
2061;SDS011;11070;51.336;12.340;2023-03-01T06:42:36;28.60;;;16.58;;
2061;SDS011;11070;51.336;12.340;2023-03-01T06:45:04;23.05;;;16.33;;
2061;SDS011;11070;51.336;12.340;2023-03-01T06:47:31;26.58;;;16.40;;
2061;SDS011;11070;51.336;12.340;2023-03-01T06:49:58;27.23;;;16.48;;
2061;SDS011;11070;51.336;12.340;2023-03-01T06:52:24;25.45;;;17.48;;
2061;SDS011;11070;51.336;12.340;2023-03-01T06:54:50;22.77;;;15.80;;
2061;SDS011;11070;51.336;12.340;2023-03-01T06:57:15;21.57;;;16.03;;
2061;SDS011;11070;51.336;12.340;2023-03-01T06:59:41;24.87;;;16.40;;
2061;SDS011;11070;51.336;12.340;2023-03-01T07:02:09;22.70;;;15.70;;
2061;SDS011;11070;51.336;12.340;2023-03-01T07:04:36;26.02;;;16.60;;
2061;SDS011;11070;51.336;12.340;2023-03-01T07:07:03;22.55;;;15.45;;
2061;SDS011;11070;51.336;12.340;2023-03-01T07:09:28;24.30;;;17.00;;
2061;SDS011;11070;51.336;12.340;2023-03-01T07:11:54;24.90;;;17.00;;
2061;SDS011;11070;51.336;12.340;2023-03-01T07:14:20;25.13;;;15.85;;
2061;SDS011;11070;51.336;12.340;2023-03-01T07:16:46;21.77;;;15.70;;
2061;SDS011;11070;51.336;12.340;2023-03-01T07:19:12;23.10;;;17.20;;
2061;SDS011;11070;51.336;12.340;2023-03-01T07:21:38;23.37;;;16.60;;
2061;SDS011;11070;51.336;12.340;2023-03-01T07:24:07;22.80;;;15.80;;
2061;SDS011;11070;51.336;12.340;2023-03-01T07:26:34;22.42;;;15.57;;
2061;SDS011;11070;51.336;12.340;2023-03-01T07:29:00;23.23;;;16.23;;
2061;SDS011;11070;51.336;12.340;2023-03-01T07:31:26;20.55;;;15.57;;
2061;SDS011;11070;51.336;12.340;2023-03-01T07:33:55;21.65;;;15.93;;
2061;SDS011;11070;51.336;12.340;2023-03-01T07:36:21;27.50;;;16.50;;
2061;SDS011;11070;51.336;12.340;2023-03-01T07:38:47;24.07;;;16.10;;
2061;SDS011;11070;51.336;12.340;2023-03-01T07:41:12;19.57;;;14.93;;
2061;SDS011;11070;51.336;12.340;2023-03-01T07:43:39;27.13;;;16.25;;
2061;SDS011;11070;51.336;12.340;2023-03-01T07:46:05;23.17;;;15.70;;
2061;SDS011;11070;51.336;12.340;2023-03-01T07:48:32;20.38;;;16.08;;
2061;SDS011;11070;51.336;12.340;2023-03-01T07:50:58;24.42;;;16.23;;
2061;SDS011;11070;51.336;12.340;2023-03-01T07:53:25;21.88;;;15.60;;
2061;SDS011;11070;51.336;12.340;2023-03-01T07:56:00;19.60;;;14.93;;
2061;SDS011;11070;51.336;12.340;2023-03-01T07:58:30;23.42;;;16.17;;
2061;SDS011;11070;51.336;12.340;2023-03-01T08:00:55;21.47;;;15.67;;
2061;SDS011;11070;51.336;12.340;2023-03-01T08:03:21;22.37;;;16.70;;
2061;SDS011;11070;51.336;12.340;2023-03-01T08:05:47;20.20;;;14.80;;
2061;SDS011;11070;51.336;12.340;2023-03-01T08:08:12;25.97;;;17.87;;
2061;SDS011;11070;51.336;12.340;2023-03-01T08:10:38;21.10;;;16.43;;
2061;SDS011;11070;51.336;12.340;2023-03-01T08:13:03;23.03;;;16.60;;
2061;SDS011;11070;51.336;12.340;2023-03-01T08:15:29;23.93;;;17.70;;
2061;SDS011;11070;51.336;12.340;2023-03-01T08:17:55;22.60;;;16.83;;
2061;SDS011;11070;51.336;12.340;2023-03-01T08:20:20;19.73;;;17.50;;
2061;SDS011;11070;51.336;12.340;2023-03-01T08:22:46;29.87;;;18.77;;
2061;SDS011;11070;51.336;12.340;2023-03-01T08:25:12;19.63;;;16.53;;
2061;SDS011;11070;51.336;12.340;2023-03-01T08:27:37;21.50;;;17.20;;
2061;SDS011;11070;51.336;12.340;2023-03-01T08:30:03;21.67;;;16.67;;
2061;SDS011;11070;51.336;12.340;2023-03-01T08:32:29;21.30;;;16.73;;
2061;SDS011;11070;51.336;12.340;2023-03-01T08:34:59;23.63;;;17.65;;
2061;SDS011;11070;51.336;12.340;2023-03-01T08:37:25;22.83;;;16.50;;
2061;SDS011;11070;51.336;12.340;2023-03-01T08:39:51;24.70;;;17.90;;
2061;SDS011;11070;51.336;12.340;2023-03-01T08:42:16;21.00;;;17.70;;
2061;SDS011;11070;51.336;12.340;2023-03-01T08:44:42;25.73;;;18.40;;
2061;SDS011;11070;51.336;12.340;2023-03-01T08:47:08;24.40;;;17.27;;
2061;SDS011;11070;51.336;12.340;2023-03-01T08:49:33;23.80;;;18.50;;
2061;SDS011;11070;51.336;12.340;2023-03-01T08:51:59;23.77;;;19.00;;
2061;SDS011;11070;51.336;12.340;2023-03-01T08:54:25;19.93;;;17.80;;
2061;SDS011;11070;51.336;12.340;2023-03-01T08:56:50;23.97;;;18.97;;
2061;SDS011;11070;51.336;12.340;2023-03-01T08:59:16;22.97;;;19.43;;
2061;SDS011;11070;51.336;12.340;2023-03-01T09:01:43;23.65;;;18.33;;
2061;SDS011;11070;51.336;12.340;2023-03-01T09:04:09;22.63;;;18.67;;
2061;SDS011;11070;51.336;12.340;2023-03-01T09:06:36;21.15;;;17.40;;
2061;SDS011;11070;51.336;12.340;2023-03-01T09:09:02;24.53;;;17.93;;
2061;SDS011;11070;51.336;12.340;2023-03-01T09:11:29;23.10;;;18.77;;
2061;SDS011;11070;51.336;12.340;2023-03-01T09:13:55;24.40;;;19.73;;
2061;SDS011;11070;51.336;12.340;2023-03-01T09:16:22;23.15;;;18.10;;
2061;SDS011;11070;51.336;12.340;2023-03-01T09:18:49;24.33;;;19.30;;
2061;SDS011;11070;51.336;12.340;2023-03-01T09:21:19;22.40;;;18.55;;
2061;SDS011;11070;51.336;12.340;2023-03-01T09:23:46;22.52;;;18.23;;
2061;SDS011;11070;51.336;12.340;2023-03-01T09:26:14;24.45;;;18.88;;
2061;SDS011;11070;51.336;12.340;2023-03-01T09:28:42;28.75;;;18.85;;
2061;SDS011;11070;51.336;12.340;2023-03-01T09:31:09;23.38;;;18.95;;
2061;SDS011;11070;51.336;12.340;2023-03-01T09:33:37;22.92;;;18.27;;
2061;SDS011;11070;51.336;12.340;2023-03-01T09:36:04;23.70;;;17.90;;
2061;SDS011;11070;51.336;12.340;2023-03-01T09:38:32;22.90;;;17.95;;
2061;SDS011;11070;51.336;12.340;2023-03-01T09:40:59;20.67;;;17.95;;
2061;SDS011;11070;51.336;12.340;2023-03-01T09:46:07;20.50;;;18.00;;
2061;SDS011;11070;51.336;12.340;2023-03-01T09:48:58;24.50;;;17.40;;
2061;SDS011;11070;51.336;12.340;2023-03-01T09:51:35;23.15;;;18.00;;
2061;SDS011;11070;51.336;12.340;2023-03-01T09:54:02;21.65;;;17.63;;
2061;SDS011;11070;51.336;12.340;2023-03-01T09:56:33;22.65;;;18.13;;
2061;SDS011;11070;51.336;12.340;2023-03-01T09:59:36;21.20;;;17.33;;
2061;SDS011;11070;51.336;12.340;2023-03-01T10:02:19;21.10;;;17.70;;
2061;SDS011;11070;51.336;12.340;2023-03-01T10:05:19;23.52;;;17.33;;
2061;SDS011;11070;51.336;12.340;2023-03-01T10:10:36;23.15;;;17.02;;
2061;SDS011;11070;51.336;12.340;2023-03-01T10:13:17;25.80;;;19.55;;
2061;SDS011;11070;51.336;12.340;2023-03-01T10:15:56;22.63;;;17.77;;
2061;SDS011;11070;51.336;12.340;2023-03-01T10:18:54;27.42;;;18.33;;
2061;SDS011;11070;51.336;12.340;2023-03-01T10:21:25;23.05;;;17.38;;
2061;SDS011;11070;51.336;12.340;2023-03-01T10:23:52;21.80;;;18.25;;
2061;SDS011;11070;51.336;12.340;2023-03-01T10:29:19;20.95;;;17.15;;
2061;SDS011;11070;51.336;12.340;2023-03-01T10:32:25;24.88;;;17.98;;
2061;SDS011;11070;51.336;12.340;2023-03-01T10:34:51;20.92;;;17.15;;
2061;SDS011;11070;51.336;12.340;2023-03-01T10:37:18;22.27;;;16.43;;
2061;SDS011;11070;51.336;12.340;2023-03-01T10:42:34;20.80;;;15.27;;
2061;SDS011;11070;51.336;12.340;2023-03-01T10:50:35;21.53;;;16.90;;
2061;SDS011;11070;51.336;12.340;2023-03-01T10:53:04;19.30;;;17.03;;
2061;SDS011;11070;51.336;12.340;2023-03-01T10:58:33;20.57;;;16.97;;
2061;SDS011;11070;51.336;12.340;2023-03-01T11:00:53;19.77;;;14.97;;
2061;SDS011;11070;51.336;12.340;2023-03-01T11:03:29;18.23;;;15.77;;
2061;SDS011;11070;51.336;12.340;2023-03-01T11:06:01;18.77;;;14.88;;
2061;SDS011;11070;51.336;12.340;2023-03-01T11:08:46;19.15;;;15.40;;
2061;SDS011;11070;51.336;12.340;2023-03-01T11:11:30;16.10;;;14.40;;
2061;SDS011;11070;51.336;12.340;2023-03-01T11:14:01;18.20;;;15.93;;
2061;SDS011;11070;51.336;12.340;2023-03-01T11:18:59;24.80;;;18.00;;
2061;SDS011;11070;51.336;12.340;2023-03-01T11:21:34;21.60;;;17.98;;
2061;SDS011;11070;51.336;12.340;2023-03-01T11:24:43;22.10;;;18.75;;
2061;SDS011;11070;51.336;12.340;2023-03-01T11:27:16;22.77;;;18.73;;
2061;SDS011;11070;51.336;12.340;2023-03-01T11:29:45;20.98;;;18.05;;
2061;SDS011;11070;51.336;12.340;2023-03-01T11:32:17;21.52;;;18.63;;
2061;SDS011;11070;51.336;12.340;2023-03-01T11:40:22;22.40;;;17.10;;
2061;SDS011;11070;51.336;12.340;2023-03-01T11:56:35;19.85;;;16.70;;
2061;SDS011;11070;51.336;12.340;2023-03-01T12:26:30;20.13;;;16.30;;
2061;SDS011;11070;51.336;12.340;2023-03-01T12:32:15;16.95;;;14.07;;
2061;SDS011;11070;51.336;12.340;2023-03-01T12:35:45;15.35;;;13.55;;
2061;SDS011;11070;51.336;12.340;2023-03-01T12:38:05;15.52;;;13.80;;
2061;SDS011;11070;51.336;12.340;2023-03-01T12:41:06;18.98;;;15.25;;
2061;SDS011;11070;51.336;12.340;2023-03-01T12:49:30;19.75;;;15.05;;
2061;SDS011;11070;51.336;12.340;2023-03-01T12:52:00;17.55;;;15.00;;
2061;SDS011;11070;51.336;12.340;2023-03-01T12:54:35;19.77;;;14.68;;
2061;SDS011;11070;51.336;12.340;2023-03-01T12:57:16;18.10;;;15.55;;
2061;SDS011;11070;51.336;12.340;2023-03-01T13:02:31;18.52;;;15.93;;
2061;SDS011;11070;51.336;12.340;2023-03-01T13:10:55;19.27;;;15.20;;
2061;SDS011;11070;51.336;12.340;2023-03-01T13:13:29;19.67;;;15.73;;
2061;SDS011;11070;51.336;12.340;2023-03-01T13:15:56;21.52;;;17.02;;
2061;SDS011;11070;51.336;12.340;2023-03-01T13:20:58;17.63;;;15.07;;
2061;SDS011;11070;51.336;12.340;2023-03-01T13:23:26;18.48;;;15.77;;
2061;SDS011;11070;51.336;12.340;2023-03-01T13:28:36;17.47;;;14.77;;
2061;SDS011;11070;51.336;12.340;2023-03-01T13:33:55;17.15;;;14.32;;
2061;SDS011;11070;51.336;12.340;2023-03-01T13:38:58;15.48;;;13.93;;
2061;SDS011;11070;51.336;12.340;2023-03-01T13:46:51;17.58;;;14.98;;
2061;SDS011;11070;51.336;12.340;2023-03-01T13:49:21;18.75;;;14.88;;
2061;SDS011;11070;51.336;12.340;2023-03-01T13:51:50;17.02;;;14.43;;
2061;SDS011;11070;51.336;12.340;2023-03-01T13:54:20;16.73;;;14.20;;
2061;SDS011;11070;51.336;12.340;2023-03-01T13:56:57;15.00;;;13.38;;
2061;SDS011;11070;51.336;12.340;2023-03-01T13:59:24;16.85;;;13.40;;
2061;SDS011;11070;51.336;12.340;2023-03-01T14:01:55;15.02;;;13.43;;
2061;SDS011;11070;51.336;12.340;2023-03-01T14:04:26;15.90;;;12.77;;
2061;SDS011;11070;51.336;12.340;2023-03-01T14:09:47;15.80;;;13.30;;
2061;SDS011;11070;51.336;12.340;2023-03-01T14:15:15;16.60;;;13.73;;
2061;SDS011;11070;51.336;12.340;2023-03-01T14:20:32;15.50;;;13.80;;
2061;SDS011;11070;51.336;12.340;2023-03-01T14:23:08;15.07;;;12.70;;
2061;SDS011;11070;51.336;12.340;2023-03-01T14:25:37;15.25;;;12.80;;
2061;SDS011;11070;51.336;12.340;2023-03-01T14:28:15;16.25;;;13.60;;
2061;SDS011;11070;51.336;12.340;2023-03-01T14:30:50;14.00;;;12.40;;
2061;SDS011;11070;51.336;12.340;2023-03-01T14:33:50;14.23;;;12.18;;
2061;SDS011;11070;51.336;12.340;2023-03-01T14:36:25;13.57;;;12.18;;
2061;SDS011;11070;51.336;12.340;2023-03-01T14:38:52;15.82;;;11.80;;
2061;SDS011;11070;51.336;12.340;2023-03-01T14:41:20;13.45;;;10.65;;
2061;SDS011;11070;51.336;12.340;2023-03-01T14:44:02;14.20;;;10.95;;
2061;SDS011;11070;51.336;12.340;2023-03-01T14:46:38;12.18;;;10.13;;
2061;SDS011;11070;51.336;12.340;2023-03-01T14:51:43;14.25;;;11.00;;
2061;SDS011;11070;51.336;12.340;2023-03-01T14:57:14;12.10;;;10.13;;
2061;SDS011;11070;51.336;12.340;2023-03-01T14:59:40;13.13;;;10.73;;
2061;SDS011;11070;51.336;12.340;2023-03-01T15:02:25;14.25;;;10.73;;
2061;SDS011;11070;51.336;12.340;2023-03-01T15:04:57;13.75;;;10.85;;
2061;SDS011;11070;51.336;12.340;2023-03-01T15:07:27;14.60;;;10.50;;
2061;SDS011;11070;51.336;12.340;2023-03-01T15:09:57;15.57;;;9.90;;
2061;SDS011;11070;51.336;12.340;2023-03-01T15:14:52;16.73;;;10.57;;
2061;SDS011;11070;51.336;12.340;2023-03-01T15:17:20;14.27;;;10.88;;
2061;SDS011;11070;51.336;12.340;2023-03-01T15:19:46;15.35;;;10.73;;
2061;SDS011;11070;51.336;12.340;2023-03-01T15:22:14;15.07;;;10.60;;
2061;SDS011;11070;51.336;12.340;2023-03-01T15:24:41;13.50;;;10.82;;
2061;SDS011;11070;51.336;12.340;2023-03-01T15:27:15;13.93;;;10.30;;
2061;SDS011;11070;51.336;12.340;2023-03-01T15:29:53;13.07;;;10.20;;
2061;SDS011;11070;51.336;12.340;2023-03-01T15:32:27;14.02;;;10.40;;
2061;SDS011;11070;51.336;12.340;2023-03-01T15:34:55;14.75;;;10.90;;
2061;SDS011;11070;51.336;12.340;2023-03-01T15:40:20;13.68;;;9.88;;
2061;SDS011;11070;51.336;12.340;2023-03-01T15:43:05;12.50;;;10.25;;
2061;SDS011;11070;51.336;12.340;2023-03-01T15:45:57;16.83;;;11.05;;
2061;SDS011;11070;51.336;12.340;2023-03-01T15:48:23;14.68;;;10.60;;
2061;SDS011;11070;51.336;12.340;2023-03-01T15:50:57;12.02;;;9.75;;
2061;SDS011;11070;51.336;12.340;2023-03-01T15:53:24;13.25;;;10.05;;
2061;SDS011;11070;51.336;12.340;2023-03-01T15:55:52;12.50;;;9.55;;
2061;SDS011;11070;51.336;12.340;2023-03-01T15:58:22;14.67;;;9.47;;
2061;SDS011;11070;51.336;12.340;2023-03-01T16:00:49;11.65;;;8.75;;
2061;SDS011;11070;51.336;12.340;2023-03-01T16:03:20;13.75;;;9.70;;
2061;SDS011;11070;51.336;12.340;2023-03-01T16:05:47;12.95;;;9.70;;
2061;SDS011;11070;51.336;12.340;2023-03-01T16:08:15;12.07;;;9.00;;
2061;SDS011;11070;51.336;12.340;2023-03-01T16:10:41;13.88;;;8.68;;
2061;SDS011;11070;51.336;12.340;2023-03-01T16:13:10;12.88;;;9.50;;
2061;SDS011;11070;51.336;12.340;2023-03-01T16:15:37;17.00;;;9.95;;
2061;SDS011;11070;51.336;12.340;2023-03-01T16:18:04;14.15;;;10.55;;
2061;SDS011;11070;51.336;12.340;2023-03-01T16:20:31;11.40;;;8.60;;
2061;SDS011;11070;51.336;12.340;2023-03-01T16:22:58;14.48;;;9.93;;
2061;SDS011;11070;51.336;12.340;2023-03-01T16:25:25;13.07;;;9.15;;
2061;SDS011;11070;51.336;12.340;2023-03-01T16:27:51;13.20;;;9.63;;
2061;SDS011;11070;51.336;12.340;2023-03-01T16:30:18;15.60;;;10.70;;
2061;SDS011;11070;51.336;12.340;2023-03-01T16:32:45;13.88;;;9.98;;
2061;SDS011;11070;51.336;12.340;2023-03-01T16:35:14;13.45;;;9.65;;
2061;SDS011;11070;51.336;12.340;2023-03-01T16:37:40;15.90;;;9.80;;
2061;SDS011;11070;51.336;12.340;2023-03-01T16:40:14;15.25;;;10.30;;
2061;SDS011;11070;51.336;12.340;2023-03-01T16:42:59;15.63;;;10.18;;
2061;SDS011;11070;51.336;12.340;2023-03-01T16:45:27;12.13;;;9.13;;
2061;SDS011;11070;51.336;12.340;2023-03-01T16:47:57;12.52;;;9.82;;
2061;SDS011;11070;51.336;12.340;2023-03-01T16:50:23;17.52;;;10.52;;
2061;SDS011;11070;51.336;12.340;2023-03-01T16:52:50;17.20;;;11.05;;
2061;SDS011;11070;51.336;12.340;2023-03-01T16:55:16;20.10;;;11.80;;